sensor_id;sensor_type;location;lat;lon;timestamp;pressure;altitude;pressure_sealevel;temperature;humidity
46223;BME280;31943;51.410;7.564;2023-04-02T00:00:03;99508.16;;;7.86;76.11
46223;BME280;31943;51.410;7.564;2023-04-02T00:02:31;99505.59;;;7.89;75.80
46223;BME280;31943;51.410;7.564;2023-04-02T00:05:28;99522.03;;;7.85;75.58
46223;BME280;31943;51.410;7.564;2023-04-02T00:07:55;99529.78;;;7.80;75.59
46223;BME280;31943;51.410;7.564;2023-04-02T00:10:30;99536.66;;;7.77;75.72
46223;BME280;31943;51.410;7.564;2023-04-02T00:13:01;99534.00;;;7.70;76.03
46223;BME280;31943;51.410;7.564;2023-04-02T00:15:28;99541.81;;;7.70;75.87
46223;BME280;31943;51.410;7.564;2023-04-02T00:17:53;99540.81;;;7.62;75.54
46223;BME280;31943;51.410;7.564;2023-04-02T00:20:20;99544.31;;;7.63;76.01
46223;BME280;31943;51.410;7.564;2023-04-02T00:22:49;99546.88;;;7.61;75.73
46223;BME280;31943;51.410;7.564;2023-04-02T00:25:15;99560.66;;;7.56;75.63
46223;BME280;31943;51.410;7.564;2023-04-02T00:27:42;99567.53;;;7.50;76.12
46223;BME280;31943;51.410;7.564;2023-04-02T00:30:11;99567.53;;;7.50;76.16
46223;BME280;31943;51.410;7.564;2023-04-02T00:32:38;99574.47;;;7.51;75.83
46223;BME280;31943;51.410;7.564;2023-04-02T00:35:09;99576.22;;;7.51;75.64
46223;BME280;31943;51.410;7.564;2023-04-02T00:37:36;99577.88;;;7.47;75.48
46223;BME280;31943;51.410;7.564;2023-04-02T00:40:08;99585.59;;;7.43;75.71
46223;BME280;31943;51.410;7.564;2023-04-02T00:42:40;99597.78;;;7.47;75.75
46223;BME280;31943;51.410;7.564;2023-04-02T00:45:14;99603.75;;;7.40;75.81
46223;BME280;31943;51.410;7.564;2023-04-02T00:47:41;99608.91;;;7.38;75.55
46223;BME280;31943;51.410;7.564;2023-04-02T00:50:21;99617.50;;;7.32;75.52
46223;BME280;31943;51.410;7.564;2023-04-02T00:52:56;99609.63;;;7.23;75.57
46223;BME280;31943;51.410;7.564;2023-04-02T00:55:31;99613.16;;;7.30;75.79
46223;BME280;31943;51.410;7.564;2023-04-02T00:58:00;99621.75;;;7.29;76.03
46223;BME280;31943;51.410;7.564;2023-04-02T01:00:28;99631.28;;;7.28;75.82
46223;BME280;31943;51.410;7.564;2023-04-02T01:03:14;99628.75;;;7.35;76.07
46223;BME280;31943;51.410;7.564;2023-04-02T01:05:56;99637.34;;;7.27;75.73
46223;BME280;31943;51.410;7.564;2023-04-02T01:08:34;99639.84;;;7.23;75.21
46223;BME280;31943;51.410;7.564;2023-04-02T01:11:12;99647.53;;;7.13;74.74
46223;BME280;31943;51.410;7.564;2023-04-02T01:13:49;99656.19;;;7.14;74.90
46223;BME280;31943;51.410;7.564;2023-04-02T01:16:30;99650.97;;;7.12;75.42
46223;BME280;31943;51.410;7.564;2023-04-02T01:19:03;99647.41;;;7.06;75.33
46223;BME280;31943;51.410;7.564;2023-04-02T01:21:40;99656.81;;;6.99;75.32
46223;BME280;31943;51.410;7.564;2023-04-02T01:24:12;99660.28;;;7.00;75.58
46223;BME280;31943;51.410;7.564;2023-04-02T01:26:51;99673.28;;;7.01;75.48
46223;BME280;31943;51.410;7.564;2023-04-02T01:29:20;99676.66;;;6.94;75.69
46223;BME280;31943;51.410;7.564;2023-04-02T01:31:48;99676.53;;;6.88;75.67
46223;BME280;31943;51.410;7.564;2023-04-02T01:34:17;99687.69;;;6.84;75.90
46223;BME280;31943;51.410;7.564;2023-04-02T01:36:52;99695.47;;;6.82;75.77
46223;BME280;31943;51.410;7.564;2023-04-02T01:39:29;99702.34;;;6.79;75.63
46223;BME280;31943;51.410;7.564;2023-04-02T01:42:03;99706.63;;;6.77;75.74
46223;BME280;31943;51.410;7.564;2023-04-02T01:44:38;99709.22;;;6.78;75.73
46223;BME280;31943;51.410;7.564;2023-04-02T01:47:09;99721.34;;;6.79;75.35
46223;BME280;31943;51.410;7.564;2023-04-02T01:49:37;99722.97;;;6.72;75.89
46223;BME280;31943;51.410;7.564;2023-04-02T01:52:03;99732.28;;;6.61;75.52
46223;BME280;31943;51.410;7.564;2023-04-02T01:54:29;99733.88;;;6.53;75.53
46223;BME280;31943;51.410;7.564;2023-04-02T01:56:57;99743.41;;;6.56;75.44
46223;BME280;31943;51.410;7.564;2023-04-02T01:59:23;99752.88;;;6.53;75.59
46223;BME280;31943;51.410;7.564;2023-04-02T02:01:52;99745.06;;;6.52;75.56
46223;BME280;31943;51.410;7.564;2023-04-02T02:04:21;99752.03;;;6.53;75.77
46223;BME280;31943;51.410;7.564;2023-04-02T02:06:47;99758.81;;;6.48;75.88
46223;BME280;31943;51.410;7.564;2023-04-02T02:09:17;99770.84;;;6.44;75.54
46223;BME280;31943;51.410;7.564;2023-04-02T02:11:48;99772.50;;;6.39;75.84
46223;BME280;31943;51.410;7.564;2023-04-02T02:14:16;99770.69;;;6.35;75.71
46223;BME280;31943;51.410;7.564;2023-04-02T02:16:45;99774.19;;;6.39;75.88
46223;BME280;31943;51.410;7.564;2023-04-02T02:19:20;99772.41;;;6.36;75.84
46223;BME280;31943;51.410;7.564;2023-04-02T02:21:50;99781.94;;;6.36;75.56
46223;BME280;31943;51.410;7.564;2023-04-02T02:24:19;99786.25;;;6.35;75.67
46223;BME280;31943;51.410;7.564;2023-04-02T02:26:47;99782.72;;;6.31;75.53
46223;BME280;31943;51.410;7.564;2023-04-02T02:29:17;99794.78;;;6.31;75.54
46223;BME280;31943;51.410;7.564;2023-04-02T02:31:46;99801.63;;;6.29;75.32
46223;BME280;31943;51.410;7.564;2023-04-02T02:34:20;99800.78;;;6.28;75.35
46223;BME280;31943;51.410;7.564;2023-04-02T02:36:51;99801.72;;;6.32;75.64
46223;BME280;31943;51.410;7.564;2023-04-02T02:39:21;99808.63;;;6.31;75.21
46223;BME280;31943;51.410;7.564;2023-04-02T02:41:52;99813.69;;;6.27;75.38
46223;BME280;31943;51.410;7.564;2023-04-02T02:44:22;99815.38;;;6.25;75.00
46223;BME280;31943;51.410;7.564;2023-04-02T02:46:50;99824.91;;;6.26;75.12
46223;BME280;31943;51.410;7.564;2023-04-02T02:49:21;99827.53;;;6.27;75.31
46223;BME280;31943;51.410;7.564;2023-04-02T02:51:52;99846.59;;;6.29;75.23
46223;BME280;31943;51.410;7.564;2023-04-02T02:54:20;99846.56;;;6.28;75.03
46223;BME280;31943;51.410;7.564;2023-04-02T02:56:49;99852.50;;;6.24;74.90
46223;BME280;31943;51.410;7.564;2023-04-02T02:59:19;99859.25;;;6.17;74.94
46223;BME280;31943;51.410;7.564;2023-04-02T03:01:46;99856.59;;;6.12;74.96
46223;BME280;31943;51.410;7.564;2023-04-02T03:04:12;99870.53;;;6.18;75.28
46223;BME280;31943;51.410;7.564;2023-04-02T03:06:40;99866.28;;;6.23;74.94
46223;BME280;31943;51.410;7.564;2023-04-02T03:09:13;99875.59;;;6.13;74.81
46223;BME280;31943;51.410;7.564;2023-04-02T03:11:44;99882.41;;;6.09;74.77
46223;BME280;31943;51.410;7.564;2023-04-02T03:14:17;99882.13;;;5.97;74.59
46223;BME280;31943;51.410;7.564;2023-04-02T03:16:48;99896.84;;;5.98;74.73
46223;BME280;31943;51.410;7.564;2023-04-02T03:19:24;99895.19;;;6.02;75.19
46223;BME280;31943;51.410;7.564;2023-04-02T03:21:57;99907.41;;;6.07;75.21
46223;BME280;31943;51.410;7.564;2023-04-02T03:24:30;99907.53;;;6.12;74.72
46223;BME280;31943;51.410;7.564;2023-04-02T03:27:02;99914.25;;;6.05;75.27
46223;BME280;31943;51.410;7.564;2023-04-02T03:29:32;99916.94;;;6.08;75.04
46223;BME280;31943;51.410;7.564;2023-04-02T03:32:04;99926.44;;;6.09;74.77
46223;BME280;31943;51.410;7.564;2023-04-02T03:34:35;99921.09;;;6.02;75.03
46223;BME280;31943;51.410;7.564;2023-04-02T03:37:11;99929.84;;;6.07;74.87
46223;BME280;31943;51.410;7.564;2023-04-02T03:39:41;99936.75;;;6.06;74.74
46223;BME280;31943;51.410;7.564;2023-04-02T03:42:14;99939.16;;;5.99;74.65
46223;BME280;31943;51.410;7.564;2023-04-02T03:44:44;99942.63;;;5.99;74.36
46223;BME280;31943;51.410;7.564;2023-04-02T03:47:16;99952.34;;;6.08;74.99
46223;BME280;31943;51.410;7.564;2023-04-02T03:49:46;99957.66;;;6.14;75.00
46223;BME280;31943;51.410;7.564;2023-04-02T03:52:20;99959.38;;;6.13;74.68
46223;BME280;31943;51.410;7.564;2023-04-02T03:54:47;99966.97;;;6.07;74.36
46223;BME280;31943;51.410;7.564;2023-04-02T03:57:23;99971.13;;;5.99;74.27
46223;BME280;31943;51.410;7.564;2023-04-02T03:59:55;99973.53;;;5.93;74.31
46223;BME280;31943;51.410;7.564;2023-04-02T04:02:33;99981.97;;;5.84;74.68
46223;BME280;31943;51.410;7.564;2023-04-02T04:05:02;99991.47;;;5.85;74.42
46223;BME280;31943;51.410;7.564;2023-04-02T04:07:33;99993.03;;;5.79;74.15
46223;BME280;31943;51.410;7.564;2023-04-02T04:10:02;100002.28;;;5.69;74.12
46223;BME280;31943;51.410;7.564;2023-04-02T04:12:31;100002.13;;;5.64;74.53
46223;BME280;31943;51.410;7.564;2023-04-02T04:15:01;100006.34;;;5.59;74.51
46223;BME280;31943;51.410;7.564;2023-04-02T04:17:34;100014.00;;;5.56;74.39
46223;BME280;31943;51.410;7.564;2023-04-02T04:20:14;100018.59;;;5.66;74.71
46223;BME280;31943;51.410;7.564;2023-04-02T04:22:43;100015.88;;;5.62;74.47
46223;BME280;31943;51.410;7.564;2023-04-02T04:25:19;100023.59;;;5.59;74.68
46223;BME280;31943;51.410;7.564;2023-04-02T04:27:53;100032.94;;;5.53;74.25
46223;BME280;31943;51.410;7.564;2023-04-02T04:30:24;100045.50;;;5.40;74.28
46223;BME280;31943;51.410;7.564;2023-04-02T04:32:54;100047.03;;;5.33;74.44
46223;BME280;31943;51.410;7.564;2023-04-02T04:35:24;100047.81;;;5.30;74.26
46223;BME280;31943;51.410;7.564;2023-04-02T04:37:55;100053.69;;;5.25;74.15
46223;BME280;31943;51.410;7.564;2023-04-02T04:40:24;100068.19;;;5.18;74.45
46223;BME280;31943;51.410;7.564;2023-04-02T04:42:55;100085.38;;;5.16;74.63
46223;BME280;31943;51.410;7.564;2023-04-02T04:45:45;100082.59;;;5.10;74.37
46223;BME280;31943;51.410;7.564;2023-04-02T04:48:17;100082.44;;;5.04;73.96
46223;BME280;31943;51.410;7.564;2023-04-02T04:50:48;100091.13;;;5.07;74.25
46223;BME280;31943;51.410;7.564;2023-04-02T04:53:21;100099.06;;;5.12;74.22
46223;BME280;31943;51.410;7.564;2023-04-02T04:55:48;100099.69;;;5.05;73.91
46223;BME280;31943;51.410;7.564;2023-04-02T04:58:20;100112.50;;;5.02;73.99
46223;BME280;31943;51.410;7.564;2023-04-02T05:00:54;100118.72;;;5.07;74.43
46223;BME280;31943;51.410;7.564;2023-04-02T05:03:27;100135.91;;;5.05;74.51
46223;BME280;31943;51.410;7.564;2023-04-02T05:06:02;100134.09;;;5.02;74.49
46223;BME280;31943;51.410;7.564;2023-04-02T05:08:35;100142.78;;;5.04;74.39
46223;BME280;31943;51.410;7.564;2023-04-02T05:11:05;100143.53;;;5.00;74.69
46223;BME280;31943;51.410;7.564;2023-04-02T05:13:39;100145.44;;;5.06;74.59
46223;BME280;31943;51.410;7.564;2023-04-02T05:16:14;100154.84;;;5.04;74.24
46223;BME280;31943;51.410;7.564;2023-04-02T05:18:43;100162.59;;;5.04;73.94
46223;BME280;31943;51.410;7.564;2023-04-02T05:21:18;100173.91;;;5.07;74.04
46223;BME280;31943;51.410;7.564;2023-04-02T05:23:50;100179.91;;;5.06;73.93
46223;BME280;31943;51.410;7.564;2023-04-02T05:26:22;100181.72;;;5.09;73.98
46223;BME280;31943;51.410;7.564;2023-04-02T05:28:53;100187.56;;;5.03;73.72
46223;BME280;31943;51.410;7.564;2023-04-02T05:31:27;100202.03;;;4.97;73.67
46223;BME280;31943;51.410;7.564;2023-04-02T05:33:54;100209.00;;;4.99;73.90
46223;BME280;31943;51.410;7.564;2023-04-02T05:36:22;100209.16;;;5.04;73.66
46223;BME280;31943;51.410;7.564;2023-04-02T05:38:52;100215.03;;;5.00;73.45
46223;BME280;31943;51.410;7.564;2023-04-02T05:41:23;100224.69;;;5.04;73.33
46223;BME280;31943;51.410;7.564;2023-04-02T05:43:56;100230.91;;;5.10;73.24
46223;BME280;31943;51.410;7.564;2023-04-02T05:46:27;100236.75;;;5.05;73.29
46223;BME280;31943;51.410;7.564;2023-04-02T05:48:57;100240.81;;;4.97;73.06
46223;BME280;31943;51.410;7.564;2023-04-02T05:51:26;100240.81;;;4.97;73.50
46223;BME280;31943;51.410;7.564;2023-04-02T05:53:59;100239.22;;;5.02;73.58
46223;BME280;31943;51.410;7.564;2023-04-02T05:56:29;100248.16;;;5.10;73.56
46223;BME280;31943;51.410;7.564;2023-04-02T05:59:03;100249.16;;;5.15;73.40
46223;BME280;31943;51.410;7.564;2023-04-02T06:01:35;100252.16;;;5.27;73.50
46223;BME280;31943;51.410;7.564;2023-04-02T06:04:08;100258.44;;;5.35;73.49
46223;BME280;31943;51.410;7.564;2023-04-02T06:06:45;100257.50;;;5.33;73.08
46223;BME280;31943;51.410;7.564;2023-04-02T06:09:17;100264.16;;;5.25;72.35
46223;BME280;31943;51.410;7.564;2023-04-02T06:11:49;100272.28;;;5.10;72.56
46223;BME280;31943;51.410;7.564;2023-04-02T06:14:19;100273.81;;;5.04;72.54
46223;BME280;31943;51.410;7.564;2023-04-02T06:16:45;100287.69;;;5.06;72.70
46223;BME280;31943;51.410;7.564;2023-04-02T06:19:16;100293.03;;;5.12;72.77
46223;BME280;31943;51.410;7.564;2023-04-02T06:21:43;100298.97;;;5.09;72.45
46223;BME280;31943;51.410;7.564;2023-04-02T06:24:10;100305.91;;;5.10;72.75
46223;BME280;31943;51.410;7.564;2023-04-02T06:26:41;100303.38;;;5.12;72.85
46223;BME280;31943;51.410;7.564;2023-04-02T06:29:12;100322.47;;;5.15;72.57
46223;BME280;31943;51.410;7.564;2023-04-02T06:31:45;100321.75;;;5.20;72.88
46223;BME280;31943;51.410;7.564;2023-04-02T06:34:14;100323.50;;;5.21;72.55
46223;BME280;31943;51.410;7.564;2023-04-02T06:36:41;100338.22;;;5.23;72.47
46223;BME280;31943;51.410;7.564;2023-04-02T06:39:14;100341.00;;;5.28;72.13
46223;BME280;31943;51.410;7.564;2023-04-02T06:41:43;100349.28;;;5.18;71.93
46223;BME280;31943;51.410;7.564;2023-04-02T06:44:14;100349.91;;;5.10;71.87
46223;BME280;31943;51.410;7.564;2023-04-02T06:46:42;100361.97;;;5.10;71.84
46223;BME280;31943;51.410;7.564;2023-04-02T06:49:17;100358.84;;;4.94;71.50
46223;BME280;31943;51.410;7.564;2023-04-02T06:51:44;100369.91;;;4.90;71.67
46223;BME280;31943;51.410;7.564;2023-04-02T06:54:13;100376.47;;;4.81;71.58
46223;BME280;31943;51.410;7.564;2023-04-02T06:56:41;100378.06;;;4.77;71.68
46223;BME280;31943;51.410;7.564;2023-04-02T06:59:13;100384.00;;;4.74;71.95
46223;BME280;31943;51.410;7.564;2023-04-02T07:01:42;100390.44;;;4.62;71.67
46223;BME280;31943;51.410;7.564;2023-04-02T07:04:10;100393.84;;;4.61;71.57
46223;BME280;31943;51.410;7.564;2023-04-02T07:06:37;100393.72;;;4.58;71.47
46223;BME280;31943;51.410;7.564;2023-04-02T07:09:03;100404.19;;;4.61;71.62
46223;BME280;31943;51.410;7.564;2023-04-02T07:11:31;100405.94;;;4.62;71.57
46223;BME280;31943;51.410;7.564;2023-04-02T07:13:57;100417.22;;;4.64;71.84
46223;BME280;31943;51.410;7.564;2023-04-02T07:16:25;100418.06;;;4.64;71.86
46223;BME280;31943;51.410;7.564;2023-04-02T07:18:52;100426.97;;;4.71;72.02
46223;BME280;31943;51.410;7.564;2023-04-02T07:21:18;100433.16;;;4.76;71.97
46223;BME280;31943;51.410;7.564;2023-04-02T07:23:44;100436.94;;;4.84;71.58
46223;BME280;31943;51.410;7.564;2023-04-02T07:26:13;100438.16;;;4.95;71.52
46223;BME280;31943;51.410;7.564;2023-04-02T07:28:40;100447.84;;;5.01;71.42
46223;BME280;31943;51.410;7.564;2023-04-02T07:31:14;100451.59;;;5.09;71.21
46223;BME280;31943;51.410;7.564;2023-04-02T07:33:42;100449.78;;;5.07;71.19
46223;BME280;31943;51.410;7.564;2023-04-02T07:36:14;100460.25;;;5.10;71.15
46223;BME280;31943;51.410;7.564;2023-04-02T07:38:43;100459.34;;;5.09;71.10
46223;BME280;31943;51.410;7.564;2023-04-02T07:41:10;100467.88;;;5.07;71.35
46223;BME280;31943;51.410;7.564;2023-04-02T07:43:37;100475.78;;;5.10;71.32
46223;BME280;31943;51.410;7.564;2023-04-02T07:46:03;100483.41;;;5.07;70.55
46223;BME280;31943;51.410;7.564;2023-04-02T07:48:29;100486.31;;;4.92;70.25
46223;BME280;31943;51.410;7.564;2023-04-02T07:50:57;100481.91;;;4.89;70.22
46223;BME280;31943;51.410;7.564;2023-04-02T07:53:26;100495.78;;;4.91;70.22
46223;BME280;31943;51.410;7.564;2023-04-02T07:55:53;100497.34;;;4.86;69.80
46223;BME280;31943;51.410;7.564;2023-04-02T07:58:19;100506.44;;;4.77;69.82
46223;BME280;31943;51.410;7.564;2023-04-02T08:00:46;100507.31;;;4.77;69.95
46223;BME280;31943;51.410;7.564;2023-04-02T08:03:13;100511.78;;;4.81;70.19
46223;BME280;31943;51.410;7.564;2023-04-02T08:05:40;100519.66;;;4.84;70.06
46223;BME280;31943;51.410;7.564;2023-04-02T08:08:09;100520.59;;;4.86;70.13
46223;BME280;31943;51.410;7.564;2023-04-02T08:10:35;100524.78;;;4.83;69.62
46223;BME280;31943;51.410;7.564;2023-04-02T08:13:02;100531.66;;;4.82;69.92
46223;BME280;31943;51.410;7.564;2023-04-02T08:15:28;100540.38;;;4.86;69.98
46223;BME280;31943;51.410;7.564;2023-04-02T08:17:54;100538.81;;;4.89;69.87
46223;BME280;31943;51.410;7.564;2023-04-02T08:20:21;100546.50;;;4.88;69.39
46223;BME280;31943;51.410;7.564;2023-04-02T08:22:48;100552.50;;;4.87;69.49
46223;BME280;31943;51.410;7.564;2023-04-02T08:25:17;100559.31;;;4.85;69.50
46223;BME280;31943;51.410;7.564;2023-04-02T08:27:46;100562.72;;;4.84;69.20
46223;BME280;31943;51.410;7.564;2023-04-02T08:30:12;100563.50;;;4.81;68.89
46223;BME280;31943;51.410;7.564;2023-04-02T08:32:38;100570.88;;;4.72;68.89
46223;BME280;31943;51.410;7.564;2023-04-02T08:35:05;100582.00;;;4.69;69.25
46223;BME280;31943;51.410;7.564;2023-04-02T08:37:31;100581.16;;;4.70;69.41
46223;BME280;31943;51.410;7.564;2023-04-02T08:39:56;100586.00;;;4.84;69.69
46223;BME280;31943;51.410;7.564;2023-04-02T08:42:29;100597.34;;;4.87;69.54
46223;BME280;31943;51.410;7.564;2023-04-02T08:45:08;100600.78;;;4.88;69.06
46223;BME280;31943;51.410;7.564;2023-04-02T08:47:37;100598.19;;;4.86;69.21
46223;BME280;31943;51.410;7.564;2023-04-02T08:50:12;100604.31;;;4.90;69.44
46223;BME280;31943;51.410;7.564;2023-04-02T08:52:40;100610.72;;;5.00;69.65
46223;BME280;31943;51.410;7.564;2023-04-02T08:55:17;100608.22;;;5.01;68.89
46223;BME280;31943;51.410;7.564;2023-04-02T08:57:48;100608.13;;;5.00;68.68
46223;BME280;31943;51.410;7.564;2023-04-02T09:00:26;100609.28;;;5.06;68.86
46223;BME280;31943;51.410;7.564;2023-04-02T09:02:57;100617.91;;;5.07;68.17
46223;BME280;31943;51.410;7.564;2023-04-02T09:05:26;100615.44;;;5.10;68.35
46223;BME280;31943;51.410;7.564;2023-04-02T09:07:55;100629.63;;;5.20;68.51
46223;BME280;31943;51.410;7.564;2023-04-02T09:10:33;100631.81;;;5.33;68.71
46223;BME280;31943;51.410;7.564;2023-04-02T09:13:04;100639.00;;;5.40;68.24
46223;BME280;31943;51.410;7.564;2023-04-02T09:15:39;100646.69;;;5.39;67.95
46223;BME280;31943;51.410;7.564;2023-04-02T09:18:13;100649.06;;;5.32;67.79
46223;BME280;31943;51.410;7.564;2023-04-02T09:20:39;100648.66;;;5.22;67.07
46223;BME280;31943;51.410;7.564;2023-04-02T09:23:04;100663.91;;;5.14;68.19
46223;BME280;31943;51.410;7.564;2023-04-02T09:25:33;100665.88;;;5.21;68.41
46223;BME280;31943;51.410;7.564;2023-04-02T09:28:01;100668.09;;;5.34;68.53
46223;BME280;31943;51.410;7.564;2023-04-02T09:30:39;100667.47;;;5.40;68.20
46223;BME280;31943;51.410;7.564;2023-04-02T09:33:07;100680.41;;;5.40;67.95
46223;BME280;31943;51.410;7.564;2023-04-02T09:35:34;100680.41;;;5.40;68.14
46223;BME280;31943;51.410;7.564;2023-04-02T09:38:25;100680.56;;;5.45;67.35
46223;BME280;31943;51.410;7.564;2023-04-02T09:40:56;100691.97;;;5.50;66.81
46223;BME280;31943;51.410;7.564;2023-04-02T09:43:24;100693.84;;;5.54;66.65
46223;BME280;31943;51.410;7.564;2023-04-02T09:45:58;100704.66;;;5.66;66.48
46223;BME280;31943;51.410;7.564;2023-04-02T09:48:26;100705.88;;;5.52;66.64
46223;BME280;31943;51.410;7.564;2023-04-02T09:51:04;100722.53;;;5.59;66.38
46223;BME280;31943;51.410;7.564;2023-04-02T09:53:34;100712.97;;;5.58;66.07
46223;BME280;31943;51.410;7.564;2023-04-02T09:56:12;100717.38;;;5.60;66.18
46223;BME280;31943;51.410;7.564;2023-04-02T09:58:38;100713.22;;;5.64;66.03
46223;BME280;31943;51.410;7.564;2023-04-02T10:01:23;100734.06;;;5.67;65.90
46223;BME280;31943;51.410;7.564;2023-04-02T10:03:51;100735.41;;;5.57;65.54
46223;BME280;31943;51.410;7.564;2023-04-02T10:06:17;100734.34;;;5.52;65.90
46223;BME280;31943;51.410;7.564;2023-04-02T10:08:44;100742.16;;;5.53;65.82
46223;BME280;31943;51.410;7.564;2023-04-02T10:11:12;100746.09;;;5.66;65.94
46223;BME280;31943;51.410;7.564;2023-04-02T10:13:49;100748.94;;;5.72;66.23
46223;BME280;31943;51.410;7.564;2023-04-02T10:16:22;100752.69;;;5.81;65.75
46223;BME280;31943;51.410;7.564;2023-04-02T10:18:51;100757.16;;;5.85;65.87
46223;BME280;31943;51.410;7.564;2023-04-02T10:21:23;100776.44;;;5.93;65.77
46223;BME280;31943;51.410;7.564;2023-04-02T10:23:50;100769.56;;;5.93;65.26
46223;BME280;31943;51.410;7.564;2023-04-02T10:26:29;100772.25;;;5.95;65.27
46223;BME280;31943;51.410;7.564;2023-04-02T10:29:42;100775.78;;;5.97;64.91
46223;BME280;31943;51.410;7.564;2023-04-02T10:32:15;100777.59;;;6.00;65.33
46223;BME280;31943;51.410;7.564;2023-04-02T10:34:46;100782.53;;;6.16;65.30
46223;BME280;31943;51.410;7.564;2023-04-02T10:37:45;100789.28;;;6.37;65.07
46223;BME280;31943;51.410;7.564;2023-04-02T10:40:19;100797.56;;;6.50;65.18
46223;BME280;31943;51.410;7.564;2023-04-02T10:42:47;100804.13;;;6.65;64.72
46223;BME280;31943;51.410;7.564;2023-04-02T10:45:27;100803.13;;;6.61;63.84
46223;BME280;31943;51.410;7.564;2023-04-02T10:48:05;100802.84;;;6.53;64.17
46223;BME280;31943;51.410;7.564;2023-04-02T10:50:40;100802.19;;;6.59;63.62
46223;BME280;31943;51.410;7.564;2023-04-02T10:53:14;100811.56;;;6.56;63.60
46223;BME280;31943;51.410;7.564;2023-04-02T10:55:43;100818.75;;;6.63;63.75
46223;BME280;31943;51.410;7.564;2023-04-02T10:58:17;100812.50;;;6.58;62.76
46223;BME280;31943;51.410;7.564;2023-04-02T11:00:45;100811.56;;;6.56;62.31
46223;BME280;31943;51.410;7.564;2023-04-02T11:03:15;100810.84;;;6.60;62.17
46223;BME280;31943;51.410;7.564;2023-04-02T11:05:46;100810.75;;;6.57;62.14
46223;BME280;31943;51.410;7.564;2023-04-02T11:08:16;100812.34;;;6.53;61.81
46223;BME280;31943;51.410;7.564;2023-04-02T11:10:47;100823.59;;;6.53;61.72
46223;BME280;31943;51.410;7.564;2023-04-02T11:13:19;100819.94;;;6.48;61.51
46223;BME280;31943;51.410;7.564;2023-04-02T11:15:48;100831.16;;;6.47;61.63
46223;BME280;31943;51.410;7.564;2023-04-02T11:18:29;100825.09;;;6.47;61.52
46223;BME280;31943;51.410;7.564;2023-04-02T11:20:58;100833.63;;;6.44;61.93
46223;BME280;31943;51.410;7.564;2023-04-02T11:23:31;100831.22;;;6.49;62.35
46223;BME280;31943;51.410;7.564;2023-04-02T11:26:33;100836.63;;;6.55;62.26
46223;BME280;31943;51.410;7.564;2023-04-02T11:29:17;100846.00;;;6.51;61.87
46223;BME280;31943;51.410;7.564;2023-04-02T11:31:45;100855.38;;;6.48;62.00
46223;BME280;31943;51.410;7.564;2023-04-02T11:37:32;100873.38;;;6.43;61.63
46223;BME280;31943;51.410;7.564;2023-04-02T11:39:59;100881.84;;;6.39;61.50
46223;BME280;31943;51.410;7.564;2023-04-02T11:42:35;100875.97;;;6.43;61.84
46223;BME280;31943;51.410;7.564;2023-04-02T11:48:27;100898.63;;;6.49;61.93
46223;BME280;31943;51.410;7.564;2023-04-02T11:50:56;100897.50;;;6.42;61.59
46223;BME280;31943;51.410;7.564;2023-04-02T11:53:29;100900.09;;;6.42;61.24
46223;BME280;31943;51.410;7.564;2023-04-02T11:56:08;100909.66;;;6.43;61.36
46223;BME280;31943;51.410;7.564;2023-04-02T11:58:53;100910.78;;;6.27;60.85
46223;BME280;31943;51.410;7.564;2023-04-02T12:01:44;100909.88;;;6.27;60.84
46223;BME280;31943;51.410;7.564;2023-04-02T12:04:57;100922.34;;;6.36;61.67
46223;BME280;31943;51.410;7.564;2023-04-02T12:07:48;100915.06;;;6.49;61.96
46223;BME280;31943;51.410;7.564;2023-04-02T12:10:19;100918.00;;;6.59;62.22
46223;BME280;31943;51.410;7.564;2023-04-02T12:12:45;100924.22;;;6.64;62.54
46223;BME280;31943;51.410;7.564;2023-04-02T12:15:41;100923.50;;;6.68;61.07
46223;BME280;31943;51.410;7.564;2023-04-02T12:18:14;100925.78;;;6.59;60.03
46223;BME280;31943;51.410;7.564;2023-04-02T12:20:45;100936.16;;;6.59;60.41
46223;BME280;31943;51.410;7.564;2023-04-02T12:23:17;100928.31;;;6.57;62.00
46223;BME280;31943;51.410;7.564;2023-04-02T12:25:54;100935.53;;;6.66;61.95
46223;BME280;31943;51.410;7.564;2023-04-02T12:28:21;100939.56;;;6.82;61.89
46223;BME280;31943;51.410;7.564;2023-04-02T12:30:47;100941.78;;;6.95;61.80
46223;BME280;31943;51.410;7.564;2023-04-02T12:33:15;100943.56;;;6.96;60.55
46223;BME280;31943;51.410;7.564;2023-04-02T12:35:42;100953.75;;;6.90;60.64
46223;BME280;31943;51.410;7.564;2023-04-02T12:38:20;100941.91;;;6.98;60.51
46223;BME280;31943;51.410;7.564;2023-04-02T12:40:51;100945.44;;;7.00;60.31
46223;BME280;31943;51.410;7.564;2023-04-02T12:43:22;100949.72;;;7.00;60.30
46223;BME280;31943;51.410;7.564;2023-04-02T12:45:50;100954.75;;;6.95;59.72
46223;BME280;31943;51.410;7.564;2023-04-02T12:48:16;100957.16;;;6.89;58.77
46223;BME280;31943;51.410;7.564;2023-04-02T12:50:44;100967.66;;;6.92;59.30
46223;BME280;31943;51.410;7.564;2023-04-02T12:53:19;100966.22;;;7.00;59.96
46223;BME280;31943;51.410;7.564;2023-04-02T12:55:48;100966.47;;;7.08;59.96
46223;BME280;31943;51.410;7.564;2023-04-02T12:58:25;100962.94;;;7.06;59.44
46223;BME280;31943;51.410;7.564;2023-04-02T13:00:50;100963.03;;;7.09;59.75
46223;BME280;31943;51.410;7.564;2023-04-02T13:03:19;100966.63;;;7.12;60.12
46223;BME280;31943;51.410;7.564;2023-04-02T13:05:48;100973.75;;;7.18;60.20
46223;BME280;31943;51.410;7.564;2023-04-02T13:08:22;100969.56;;;7.22;59.50
46223;BME280;31943;51.410;7.564;2023-04-02T13:10:54;100980.22;;;7.29;60.04
46223;BME280;31943;51.410;7.564;2023-04-02T13:13:25;100984.09;;;7.42;59.16
46223;BME280;31943;51.410;7.564;2023-04-02T13:16:03;100993.88;;;7.49;58.95
46223;BME280;31943;51.410;7.564;2023-04-02T13:18:31;100991.44;;;7.54;58.44
46223;BME280;31943;51.410;7.564;2023-04-02T13:20:57;100997.88;;;7.65;57.91
46223;BME280;31943;51.410;7.564;2023-04-02T13:23:32;100999.69;;;7.68;57.80
46223;BME280;31943;51.410;7.564;2023-04-02T13:25:59;100998.28;;;7.78;57.52
46223;BME280;31943;51.410;7.564;2023-04-02T13:28:26;100997.66;;;7.85;57.38
46223;BME280;31943;51.410;7.564;2023-04-02T13:30:52;100992.47;;;7.85;57.50